createdAt,value
2018-08-07T00:00:24.573Z,28.21
2018-08-07T00:02:01.440Z,28.19
2018-08-07T00:03:37.927Z,27.80
2018-08-07T00:05:15.143Z,28.47
2018-08-07T00:06:52.548Z,27.88
2018-08-07T00:08:29.461Z,28.32
2018-08-07T00:10:07.753Z,28.03
2018-08-07T00:11:44.184Z,28.00
2018-08-07T00:13:20.693Z,28.20
2018-08-07T00:14:58.243Z,28.71
2018-08-07T00:16:35.456Z,28.62
2018-08-07T00:18:11.825Z,28.55
2018-08-07T00:19:48.373Z,28.14
2018-08-07T00:22:54.096Z,27.81
2018-08-07T00:24:31.316Z,27.98
2018-08-07T00:26:07.901Z,28.55
2018-08-07T00:27:45.086Z,27.84
2018-08-07T00:29:21.368Z,28.18
2018-08-07T00:30:57.445Z,28.19
2018-08-07T00:32:35.611Z,28.67
2018-08-07T00:34:12.596Z,28.38
2018-08-07T00:35:49.756Z,28.69
2018-08-07T00:37:26.285Z,28.26
2018-08-07T00:39:02.572Z,28.11
2018-08-07T00:40:40.175Z,28.73
2018-08-07T00:42:17.396Z,28.73
2018-08-07T00:43:53.745Z,28.08
2018-08-07T00:45:31.253Z,28.56
2018-08-07T00:47:08.303Z,28.82
2018-08-07T00:48:44.742Z,28.23
2018-08-07T00:52:01.605Z,28.27
2018-08-07T00:53:38.318Z,28.66
2018-08-07T00:55:16.303Z,28.04
2018-08-07T00:56:52.859Z,28.55
2018-08-07T00:58:29.297Z,28.32
2018-08-07T01:00:11.237Z,28.19
2018-08-07T01:01:51.531Z,28.38
2018-08-07T01:03:29.486Z,28.29
2018-08-07T01:05:07.737Z,28.44
2018-08-07T01:06:44.698Z,28.88
2018-08-07T01:08:21.121Z,28.58
2018-08-07T01:09:57.413Z,28.84
2018-08-07T01:11:34.162Z,28.59
2018-08-07T01:13:10.906Z,28.83
2018-08-07T01:14:47.219Z,29.03
2018-08-07T01:16:23.932Z,28.41
2018-08-07T01:18:00.178Z,29.04
2018-08-07T01:19:37.810Z,28.88
2018-08-07T01:21:16.622Z,29.08
2018-08-07T01:22:55.053Z,28.15
2018-08-07T01:24:32.531Z,28.60
2018-08-07T01:26:09.052Z,28.81
2018-08-07T01:27:45.418Z,28.95
2018-08-07T01:29:22.258Z,29.00
2018-08-07T01:30:58.949Z,28.84
2018-08-07T01:32:35.264Z,28.50
2018-08-07T01:34:11.547Z,28.43
2018-08-07T01:35:47.963Z,29.24
2018-08-07T01:37:24.649Z,28.99
2018-08-07T01:39:01.082Z,28.54
2018-08-07T01:40:37.524Z,29.08
2018-08-07T01:42:14.055Z,29.08
2018-08-07T01:43:51.730Z,29.16
2018-08-07T01:45:28.766Z,28.83
2018-08-07T01:47:05.174Z,29.20
2018-08-07T01:48:41.638Z,29.28
2018-08-07T01:50:19.690Z,28.97
2018-08-07T01:51:56.449Z,28.79
2018-08-07T01:53:32.758Z,28.90
2018-08-07T01:55:11.808Z,29.42
2018-08-07T01:56:48.681Z,29.08
2018-08-07T01:58:25.092Z,28.95
2018-08-07T02:00:02.002Z,29.50
2018-08-07T02:01:39.339Z,29.54
2018-08-07T02:03:16.196Z,29.24
2018-08-07T02:04:52.458Z,28.82
2018-08-07T02:06:29.106Z,29.03
2018-08-07T02:08:06.301Z,28.94
2018-08-07T02:09:43.848Z,29.43
2018-08-07T02:11:20.290Z,29.37
2018-08-07T02:12:56.660Z,29.30
2018-08-07T02:14:41.733Z,28.85
2018-08-07T02:16:20.960Z,29.22
2018-08-07T02:18:02.287Z,29.49
2018-08-07T02:19:40.250Z,29.57
2018-08-07T02:21:16.641Z,29.38
2018-08-07T02:22:53.248Z,29.09
2018-08-07T02:24:30.261Z,29.09
2018-08-07T02:26:06.994Z,29.09
2018-08-07T02:27:43.954Z,29.17
2018-08-07T02:29:21.694Z,29.31
2018-08-07T02:31:00.361Z,29.51
2018-08-07T02:32:37.398Z,29.26
2018-08-07T02:34:13.812Z,29.40
2018-08-07T02:35:50.517Z,29.25
2018-08-07T02:37:27.701Z,29.02
2018-08-07T02:39:04.444Z,29.63
2018-08-07T02:40:46.411Z,29.76
2018-08-07T02:42:24.592Z,29.84
2018-08-07T02:44:02.434Z,29.34
2018-08-07T02:45:39.263Z,29.16
2018-08-07T02:47:15.830Z,29.49
2018-08-07T02:48:52.545Z,29.52
2018-08-07T02:50:30.101Z,29.40
2018-08-07T02:52:06.495Z,29.41
2018-08-07T02:53:42.981Z,29.26
2018-08-07T02:55:19.708Z,29.70
2018-08-07T02:56:56.076Z,30.03
2018-08-07T02:58:32.374Z,29.32
2018-08-07T03:00:16.815Z,29.45
2018-08-07T03:01:55.693Z,29.60
2018-08-07T03:03:31.960Z,29.97
2018-08-07T03:05:09.375Z,29.90
2018-08-07T03:06:46.232Z,30.02
2018-08-07T03:08:25.056Z,30.21
2018-08-07T03:10:02.881Z,30.01
2018-08-07T03:11:39.495Z,30.18
2018-08-07T03:13:17.885Z,30.18
2018-08-07T03:14:55.331Z,30.03
2018-08-07T03:16:32.608Z,30.23
2018-08-07T03:18:08.907Z,30.03
2018-08-07T03:19:45.343Z,30.28
2018-08-07T03:21:22.220Z,30.11
2018-08-07T03:23:00.696Z,29.20
2018-08-07T03:24:37.554Z,29.82
2018-08-07T03:26:13.936Z,30.25
2018-08-07T03:27:50.594Z,30.06
2018-08-07T03:29:26.951Z,30.41
2018-08-07T03:31:03.730Z,30.39
2018-08-07T03:32:40.072Z,30.48
2018-08-07T03:34:16.779Z,30.49
2018-08-07T03:35:53.069Z,30.38
2018-08-07T03:37:29.514Z,30.50
2018-08-07T03:39:09.382Z,30.42
2018-08-07T03:40:46.037Z,30.57
2018-08-07T03:42:22.393Z,30.10
2018-08-07T03:43:58.728Z,30.62
2018-08-07T03:45:35.707Z,30.40
2018-08-07T03:47:12.132Z,30.04
2018-08-07T03:48:48.532Z,30.65
2018-08-07T03:50:26.571Z,30.20
2018-08-07T03:52:03.727Z,30.83
2018-08-07T03:53:40.526Z,30.74
2018-08-07T03:55:18.458Z,30.21
2018-08-07T03:56:54.935Z,30.27
2018-08-07T03:58:31.172Z,30.30
2018-08-07T04:00:18.021Z,30.57
2018-08-07T04:01:54.283Z,30.93
2018-08-07T04:03:30.834Z,30.91
2018-08-07T04:05:08.124Z,30.97
2018-08-07T04:06:44.822Z,30.90
2018-08-07T04:08:21.057Z,30.53
2018-08-07T04:09:57.340Z,30.91
2018-08-07T04:11:35.815Z,30.55
2018-08-07T04:13:12.731Z,31.23
2018-08-07T04:14:49.362Z,30.58
2018-08-07T04:16:25.366Z,31.07
2018-08-07T04:18:01.563Z,31.32
2018-08-07T04:19:38.157Z,31.26
2018-08-07T04:21:14.732Z,31.07
2018-08-07T04:22:51.038Z,30.85
2018-08-07T04:24:27.713Z,31.36
2018-08-07T04:26:04.563Z,31.39
2018-08-07T04:27:40.890Z,31.34
2018-08-07T04:29:18.112Z,31.36
2018-08-07T04:30:54.692Z,30.75
2018-08-07T04:32:31.557Z,30.86
2018-08-07T04:34:08.256Z,30.88
2018-08-07T04:35:45.850Z,31.10
2018-08-07T04:37:22.314Z,31.11
2018-08-07T04:38:59.260Z,31.14
2018-08-07T04:40:35.589Z,31.77
2018-08-07T04:42:11.949Z,31.71
2018-08-07T04:43:48.338Z,31.79
2018-08-07T04:45:26.192Z,31.58
2018-08-07T04:47:02.467Z,31.35
2018-08-07T04:48:38.768Z,31.88
2018-08-07T04:50:15.135Z,31.96
2018-08-07T04:51:51.984Z,31.64
2018-08-07T04:53:28.415Z,31.42
2018-08-07T04:55:05.263Z,32.03
2018-08-07T04:56:43.970Z,31.63
2018-08-07T04:58:21.298Z,32.01
2018-08-07T05:00:05.074Z,31.91
2018-08-07T05:01:44.439Z,32.18
2018-08-07T05:03:22.520Z,32.16
2018-08-07T05:04:59.490Z,31.80
2018-08-07T05:06:35.890Z,31.90
2018-08-07T05:08:12.286Z,32.17
2018-08-07T05:09:49.124Z,31.87
2018-08-07T05:11:25.732Z,32.17
2018-08-07T05:13:03.837Z,32.10
2018-08-07T05:14:42.586Z,32.62
2018-08-07T05:16:19.589Z,32.14
2018-08-07T05:17:56.749Z,32.05
2018-08-07T05:19:33.063Z,32.66
2018-08-07T05:21:09.512Z,32.23
2018-08-07T05:22:47.064Z,32.48
2018-08-07T05:24:24.728Z,33.03
2018-08-07T05:26:01.227Z,32.11
2018-08-07T05:27:37.925Z,32.94
2018-08-07T05:29:15.508Z,32.73
2018-08-07T05:30:52.285Z,32.43
2018-08-07T05:32:28.556Z,33.15
2018-08-07T05:34:04.906Z,32.73
2018-08-07T05:35:42.131Z,33.05
2018-08-07T05:37:18.748Z,32.73
2018-08-07T05:38:56.685Z,32.50
2018-08-07T05:40:32.987Z,33.41
2018-08-07T05:42:18.993Z,33.32
2018-08-07T05:44:05.201Z,33.41
2018-08-07T05:45:49.681Z,33.10
2018-08-07T05:47:29.446Z,33.42
2018-08-07T05:49:06.963Z,33.23
2018-08-07T05:50:45.019Z,32.80
2018-08-07T05:52:21.241Z,33.14
2018-08-07T05:53:58.113Z,33.25
2018-08-07T05:55:36.390Z,33.57
2018-08-07T05:57:14.376Z,33.55
2018-08-07T05:58:50.750Z,33.11
2018-08-07T06:00:27.235Z,33.81
2018-08-07T06:02:11.642Z,33.85
2018-08-07T06:03:50.296Z,33.87
2018-08-07T06:05:27.902Z,33.17
2018-08-07T06:07:04.730Z,33.97
2018-08-07T06:08:41.683Z,33.25
2018-08-07T06:10:19.301Z,34.11
2018-08-07T06:11:58.039Z,34.12
2018-08-07T06:13:37.586Z,34.05
2018-08-07T06:15:18.096Z,34.08
2018-08-07T06:16:54.426Z,33.65
2018-08-07T06:18:31.405Z,33.88
2018-08-07T06:20:16.927Z,33.61
2018-08-07T06:22:00.049Z,34.09
2018-08-07T06:23:42.833Z,33.63
2018-08-07T06:25:19.869Z,33.70
2018-08-07T06:26:56.265Z,34.10
2018-08-07T06:28:33.667Z,33.73
2018-08-07T06:30:20.588Z,33.67
2018-08-07T06:31:58.965Z,34.25
2018-08-07T06:33:38.794Z,34.44
2018-08-07T06:35:17.256Z,33.77
2018-08-07T06:36:53.914Z,34.45
2018-08-07T06:38:31.026Z,34.41
2018-08-07T06:40:11.842Z,34.40
2018-08-07T06:41:49.239Z,33.92
2018-08-07T06:43:27.510Z,34.03
2018-08-07T06:45:06.524Z,34.45
2018-08-07T06:46:43.162Z,33.77
2018-08-07T06:48:19.861Z,34.52
2018-08-07T06:50:01.495Z,34.21
2018-08-07T06:51:38.074Z,33.80
2018-08-07T06:53:14.382Z,34.58
2018-08-07T06:54:53.608Z,34.15
2018-08-07T06:56:29.859Z,33.90
2018-08-07T06:58:06.438Z,34.13
2018-08-07T06:59:42.709Z,33.79
2018-08-07T07:01:19.655Z,34.67
2018-08-07T07:02:59.041Z,34.18
2018-08-07T07:04:35.246Z,34.41
2018-08-07T07:06:11.579Z,33.93
2018-08-07T07:07:48.332Z,34.34
2018-08-07T07:09:25.706Z,34.16
2018-08-07T07:11:02.066Z,34.34
2018-08-07T07:12:39.680Z,34.04
2018-08-07T07:14:17.360Z,34.92
2018-08-07T07:15:54.053Z,34.45
2018-08-07T07:19:08.872Z,34.23
2018-08-07T07:20:51.631Z,34.05
2018-08-07T07:22:31.786Z,34.89
2018-08-07T07:24:10.375Z,33.98
2018-08-07T07:25:47.697Z,34.13
2018-08-07T07:27:24.403Z,34.74
2018-08-07T07:29:05.068Z,34.61
2018-08-07T07:30:46.518Z,33.91
2018-08-07T07:32:25.350Z,34.83
2018-08-07T07:34:02.665Z,34.51
2018-08-07T07:35:39.039Z,33.97
2018-08-07T07:37:19.004Z,34.25
2018-08-07T07:38:57.386Z,34.77
2018-08-07T07:40:34.848Z,34.55
2018-08-07T07:42:13.009Z,34.42
2018-08-07T07:43:49.627Z,34.77
2018-08-07T07:45:26.655Z,34.52
2018-08-07T07:47:03.449Z,34.66
2018-08-07T07:48:39.729Z,34.51
2018-08-07T07:50:21.922Z,33.95
2018-08-07T07:51:59.491Z,34.52
2018-08-07T07:53:41.606Z,34.24
2018-08-07T07:55:23.480Z,33.86
2018-08-07T07:57:00.511Z,34.11
2018-08-07T07:58:37.633Z,34.27
2018-08-07T08:00:30.329Z,34.51
2018-08-07T08:02:10.474Z,33.89
2018-08-07T08:03:48.532Z,33.92
2018-08-07T08:07:21.704Z,34.46
2018-08-07T08:09:06.933Z,34.11
2018-08-07T08:10:48.831Z,33.98
2018-08-07T08:12:27.650Z,34.25
2018-08-07T08:14:06.602Z,34.21
2018-08-07T08:15:44.810Z,34.14
2018-08-07T08:17:21.916Z,34.18
2018-08-07T08:19:00.104Z,34.18
2018-08-07T08:20:37.802Z,34.16
2018-08-07T08:22:16.077Z,33.65
2018-08-07T08:23:53.339Z,34.03
2018-08-07T08:25:32.647Z,33.86
2018-08-07T08:27:14.506Z,33.90
2018-08-07T08:28:52.514Z,34.03
2018-08-07T08:30:31.431Z,34.09
2018-08-07T08:32:08.570Z,34.02
2018-08-07T08:33:44.954Z,33.77
2018-08-07T08:35:24.699Z,33.32
2018-08-07T08:37:00.934Z,33.19
2018-08-07T08:38:40.567Z,33.63
2018-08-07T08:40:19.556Z,33.67
2018-08-07T08:41:56.782Z,33.31
2018-08-07T08:43:34.477Z,33.48
2018-08-07T08:45:18.422Z,33.58
2018-08-07T08:46:54.729Z,33.05
2018-08-07T08:48:32.105Z,33.47
2018-08-07T08:50:15.360Z,33.18
2018-08-07T08:51:55.777Z,32.89
2018-08-07T08:53:41.278Z,32.92
2018-08-07T08:55:23.528Z,33.24
2018-08-07T08:57:03.550Z,33.24
2018-08-07T08:58:39.948Z,33.20
2018-08-07T09:00:26.090Z,32.79
2018-08-07T09:02:06.175Z,32.65
2018-08-07T09:03:43.321Z,32.57
2018-08-07T09:05:21.639Z,32.53
2018-08-07T09:07:00.150Z,32.71
2018-08-07T09:08:39.077Z,32.87
2018-08-07T09:10:27.712Z,32.27
2018-08-07T09:12:04.823Z,32.31
2018-08-07T09:13:42.001Z,32.20
2018-08-07T09:15:19.959Z,32.67
2018-08-07T09:16:57.015Z,32.71
2018-08-07T09:18:34.886Z,32.25
2018-08-07T09:20:30.050Z,32.68
2018-08-07T09:22:14.456Z,32.05
2018-08-07T09:23:51.786Z,32.12
2018-08-07T09:25:29.597Z,32.02
2018-08-07T09:27:06.923Z,31.91
2018-08-07T09:28:45.275Z,32.00
2018-08-07T09:30:26.483Z,31.99
2018-08-07T09:32:08.475Z,31.80
2018-08-07T09:33:44.885Z,31.80
2018-08-07T09:35:22.666Z,31.84
2018-08-07T09:37:00.782Z,32.22
2018-08-07T09:38:37.050Z,31.63
2018-08-07T09:40:16.302Z,31.51
2018-08-07T09:41:54.506Z,31.97
2018-08-07T09:43:30.886Z,32.00
2018-08-07T09:45:11.494Z,31.48
2018-08-07T09:46:50.505Z,31.48
2018-08-07T09:48:28.113Z,31.82
2018-08-07T09:50:05.919Z,31.39
2018-08-07T09:51:42.258Z,31.68
2018-08-07T09:53:18.621Z,31.30
2018-08-07T09:54:56.863Z,31.15
2018-08-07T09:56:33.159Z,31.71
2018-08-07T09:58:10.714Z,31.59
2018-08-07T09:59:50.643Z,31.05
2018-08-07T10:01:37.939Z,31.59
2018-08-07T10:03:18.742Z,31.43
2018-08-07T10:04:55.095Z,30.94
2018-08-07T10:06:34.669Z,31.50
2018-08-07T10:08:12.993Z,31.40
2018-08-07T10:09:50.532Z,30.92
2018-08-07T10:11:33.089Z,31.41
2018-08-07T10:13:18.117Z,30.69
2018-08-07T10:16:48.812Z,30.66
2018-08-07T10:18:26.944Z,30.71
2018-08-07T10:20:04.699Z,30.73
2018-08-07T10:21:42.414Z,31.09
2018-08-07T10:23:20.433Z,31.12
2018-08-07T10:24:58.649Z,30.97
2018-08-07T10:26:35.186Z,30.49
2018-08-07T10:28:14.639Z,30.51
2018-08-07T10:29:51.528Z,30.74
2018-08-07T10:31:47.684Z,30.71
2018-08-07T10:33:26.041Z,30.74
2018-08-07T10:35:02.870Z,30.07
2018-08-07T10:36:39.556Z,30.54
2018-08-07T10:38:15.950Z,30.24
2018-08-07T10:39:53.507Z,30.55
2018-08-07T10:41:30.728Z,30.08
2018-08-07T10:43:09.696Z,30.07
2018-08-07T10:44:46.427Z,30.06
2018-08-07T10:46:25.345Z,30.03
2018-08-07T10:48:02.398Z,30.36
2018-08-07T10:49:39.843Z,30.28
2018-08-07T10:51:19.067Z,29.77
2018-08-07T10:52:59.674Z,29.74
2018-08-07T10:54:38.859Z,30.20
2018-08-07T10:56:16.070Z,30.17
2018-08-07T10:57:59.202Z,29.67
2018-08-07T10:59:36.120Z,29.69
2018-08-07T11:01:14.418Z,29.44
2018-08-07T11:02:52.461Z,29.63
2018-08-07T11:04:29.198Z,30.01
2018-08-07T11:06:06.352Z,29.40
2018-08-07T11:07:43.704Z,29.84
2018-08-07T11:09:20.922Z,29.22
2018-08-07T11:10:58.465Z,29.31
2018-08-07T11:12:41.241Z,29.66
2018-08-07T11:14:26.882Z,29.17
2018-08-07T11:16:18.458Z,29.09
2018-08-07T11:18:14.492Z,29.59
2018-08-07T11:19:54.330Z,29.13
2018-08-07T11:21:31.910Z,28.93
2018-08-07T11:23:09.734Z,29.35
2018-08-07T11:24:52.077Z,29.30
2018-08-07T11:26:29.538Z,29.35
2018-08-07T11:28:08.820Z,29.03
2018-08-07T11:29:46.554Z,28.85
2018-08-07T11:31:23.654Z,28.96
2018-08-07T11:33:04.234Z,28.87
2018-08-07T11:34:40.701Z,29.41
2018-08-07T11:36:19.112Z,29.20
2018-08-07T11:37:59.266Z,28.76
2018-08-07T11:39:36.705Z,28.58
2018-08-07T11:41:16.919Z,28.91
2018-08-07T11:42:54.118Z,29.06
2018-08-07T11:44:31.130Z,28.88
2018-08-07T11:46:09.541Z,28.40
2018-08-07T11:47:46.720Z,29.00
2018-08-07T11:49:23.467Z,28.83
2018-08-07T11:51:14.980Z,28.42
2018-08-07T11:53:00.904Z,28.97
2018-08-07T11:54:47.610Z,28.53
2018-08-07T11:56:26.965Z,28.62
2018-08-07T11:58:05.594Z,28.00
2018-08-07T11:59:45.101Z,28.76
2018-08-07T12:01:22.852Z,28.67
2018-08-07T12:03:00.105Z,28.30
2018-08-07T12:04:37.412Z,28.52
2018-08-07T12:06:15.673Z,28.52
2018-08-07T12:07:52.709Z,28.32
2018-08-07T12:09:29.054Z,28.26
2018-08-07T12:11:07.989Z,27.95
2018-08-07T12:12:46.614Z,28.25
2018-08-07T12:14:29.469Z,28.24
2018-08-07T12:16:08.188Z,28.24
2018-08-07T12:17:46.236Z,27.44
2018-08-07T12:19:24.106Z,27.68
2018-08-07T12:21:05.368Z,27.55
2018-08-07T12:22:44.954Z,28.08
2018-08-07T12:24:22.304Z,28.05
2018-08-07T12:26:05.568Z,27.42
2018-08-07T12:27:43.135Z,27.40
2018-08-07T12:29:20.996Z,27.10
2018-08-07T12:30:59.473Z,27.78
2018-08-07T12:32:38.186Z,27.85
2018-08-07T12:34:15.380Z,27.83
2018-08-07T12:35:53.910Z,27.65
2018-08-07T12:37:33.207Z,27.35
2018-08-07T12:39:10.866Z,27.67
2018-08-07T12:42:56.117Z,27.04
2018-08-07T12:44:34.105Z,27.13
2018-08-07T12:46:10.513Z,27.48
2018-08-07T12:47:47.289Z,27.13
2018-08-07T12:49:23.560Z,26.78
2018-08-07T12:50:59.197Z,27.19
2018-08-07T12:52:37.981Z,27.01
2018-08-07T12:54:13.256Z,27.05
2018-08-07T12:55:50.121Z,26.76
2018-08-07T12:57:26.705Z,26.73
2018-08-07T12:59:04.645Z,26.91
2018-08-07T13:00:40.344Z,27.14
2018-08-07T13:02:20.331Z,26.78
2018-08-07T13:04:03.756Z,26.46
2018-08-07T13:05:39.202Z,26.98
2018-08-07T13:07:16.042Z,27.03
2018-08-07T13:08:52.840Z,26.80
2018-08-07T13:10:28.755Z,26.47
2018-08-07T13:12:05.241Z,27.03
2018-08-07T13:13:41.586Z,26.43
2018-08-07T13:15:21.762Z,27.05
2018-08-07T13:17:00.619Z,26.62
2018-08-07T13:18:37.481Z,26.97
2018-08-07T13:20:25.911Z,26.38
2018-08-07T13:22:02.697Z,26.78
2018-08-07T13:23:44.787Z,26.61
2018-08-07T13:27:04.265Z,26.05
2018-08-07T13:28:40.322Z,26.70
2018-08-07T13:30:26.807Z,26.08
2018-08-07T13:32:03.314Z,25.53
2018-08-07T13:33:38.596Z,26.50
2018-08-07T13:35:14.112Z,26.49
2018-08-07T13:36:53.116Z,26.51
2018-08-07T13:38:29.467Z,26.09
2018-08-07T13:40:16.511Z,26.26
2018-08-07T13:41:57.089Z,25.86
2018-08-07T13:43:34.009Z,25.84
2018-08-07T13:47:02.897Z,26.07
2018-08-07T13:48:40.190Z,26.04
2018-08-07T13:50:23.825Z,26.01
2018-08-07T13:51:59.175Z,26.15
2018-08-07T13:53:34.424Z,25.67
2018-08-07T18:24:17.648Z,22.58
2018-08-07T18:25:53.276Z,22.64
2018-08-07T18:27:30.432Z,22.61
2018-08-07T18:29:08.450Z,22.22
2018-08-07T18:30:48.279Z,22.49
2018-08-07T18:32:26.558Z,22.57
2018-08-07T18:34:02.567Z,22.20
2018-08-07T18:35:41.189Z,22.60
2018-08-07T18:37:19.509Z,22.02
2018-08-07T18:38:54.832Z,22.42
2018-08-07T18:40:32.348Z,22.08
2018-08-07T18:42:10.165Z,22.42
2018-08-07T18:43:45.627Z,21.89
2018-08-07T18:45:22.133Z,21.98
2018-08-07T18:46:57.744Z,21.96
2018-08-07T18:48:33.820Z,22.49
2018-08-07T18:50:14.091Z,22.49
2018-08-07T18:51:50.231Z,22.40
2018-08-07T18:53:26.431Z,22.21
2018-08-07T18:55:02.402Z,21.97
2018-08-07T18:56:42.610Z,22.40
2018-08-07T18:58:21.264Z,21.77
2018-08-07T18:59:57.994Z,22.00
2018-08-07T19:01:45.131Z,21.82
2018-08-07T19:03:21.814Z,21.76
2018-08-07T19:04:57.509Z,22.42
2018-08-07T19:06:33.915Z,21.84
2018-08-07T19:08:14.732Z,22.00
2018-08-07T19:11:46.824Z,21.78
2018-08-07T19:13:28.670Z,21.72
2018-08-07T19:15:08.684Z,21.76
2018-08-07T19:16:50.083Z,22.26
2018-08-07T19:18:25.653Z,21.80
2018-08-07T19:20:03.207Z,21.77
2018-08-07T19:21:39.115Z,21.87
2018-08-07T19:23:15.026Z,21.66
2018-08-07T19:24:50.821Z,22.23
2018-08-07T19:26:26.228Z,22.13
2018-08-07T19:28:02.285Z,22.24
2018-08-07T19:29:39.331Z,21.64
2018-08-07T19:31:15.831Z,22.20
2018-08-07T19:32:53.853Z,21.50
2018-08-07T19:34:48.526Z,21.51
2018-08-07T19:38:38.738Z,22.36
2018-08-07T19:40:19.909Z,22.16
2018-08-07T19:42:03.450Z,21.67
2018-08-07T19:43:42.742Z,21.81
2018-08-07T19:45:18.898Z,22.13
2018-08-07T19:46:54.839Z,22.29
2018-08-07T19:48:34.713Z,21.52
2018-08-07T19:50:14.446Z,22.26
2018-08-07T19:51:52.659Z,21.74
2018-08-07T19:53:29.527Z,21.91
2018-08-07T19:55:06.619Z,22.22
2018-08-07T19:56:42.384Z,22.32
2018-08-07T19:58:17.868Z,21.82
2018-08-07T19:59:55.584Z,21.93
2018-08-07T20:01:34.496Z,21.56
2018-08-07T20:03:11.554Z,21.75
2018-08-07T20:04:49.770Z,21.92
2018-08-07T20:06:28.533Z,22.04
2018-08-07T20:08:05.234Z,21.92
2018-08-07T20:09:45.482Z,22.16
2018-08-07T20:11:31.221Z,21.74
2018-08-07T20:13:14.299Z,21.45
2018-08-07T20:14:53.171Z,22.34
2018-08-07T20:16:30.259Z,21.47
2018-08-07T20:18:10.295Z,22.14
2018-08-07T20:19:46.661Z,21.91
2018-08-07T20:21:24.344Z,21.47
2018-08-07T20:23:05.151Z,21.98
2018-08-07T20:24:41.309Z,21.40
2018-08-07T20:26:19.778Z,22.45
2018-08-07T20:28:05.440Z,22.30
2018-08-07T20:29:50.876Z,22.31
2018-08-07T20:31:46.627Z,21.56
2018-08-07T20:33:23.853Z,21.97
2018-08-07T20:35:00.166Z,21.92
2018-08-07T20:36:36.887Z,21.48
2018-08-07T20:38:14.585Z,22.12
2018-08-07T20:39:51.016Z,21.64
2018-08-07T20:41:26.531Z,21.73
2018-08-07T20:43:06.626Z,22.40
2018-08-07T20:44:46.494Z,21.53
2018-08-07T20:46:23.271Z,22.07
2018-08-07T20:48:07.353Z,22.33
2018-08-07T20:49:45.674Z,22.06
2018-08-07T20:51:24.136Z,21.86
2018-08-07T20:53:00.836Z,21.75
2018-08-07T20:54:38.123Z,21.75
2018-08-07T20:56:14.370Z,21.91
2018-08-07T20:57:54.851Z,22.00
2018-08-07T20:59:35.043Z,22.31
2018-08-07T21:01:14.874Z,21.98
2018-08-07T21:02:50.732Z,22.21
2018-08-07T21:04:27.212Z,22.54
2018-08-07T21:06:05.525Z,22.15
2018-08-07T21:07:45.063Z,22.57
2018-08-07T21:09:22.781Z,22.23
2018-08-07T21:10:59.244Z,22.07
2018-08-07T21:12:34.913Z,22.26
2018-08-07T21:14:13.613Z,21.88
2018-08-07T21:15:53.605Z,22.60
2018-08-07T21:17:32.594Z,21.89
2018-08-07T21:19:09.948Z,22.02
2018-08-07T21:20:45.857Z,22.64
2018-08-07T21:22:21.767Z,22.02
2018-08-07T21:23:59.390Z,22.53
2018-08-07T21:25:35.577Z,22.53
2018-08-07T21:27:13.005Z,22.04
2018-08-07T21:28:48.355Z,22.24
2018-08-07T21:30:27.566Z,22.60
2018-08-07T21:32:07.383Z,22.50
2018-08-07T21:33:45.590Z,21.96
2018-08-07T21:35:21.112Z,21.99
2018-08-07T21:36:56.644Z,22.13
2018-08-07T21:38:58.063Z,22.73
2018-08-07T21:40:42.759Z,22.20
2018-08-07T21:42:31.369Z,22.94
2018-08-07T21:44:10.644Z,22.55
2018-08-07T21:45:48.833Z,22.61
2018-08-07T21:47:29.108Z,22.98
2018-08-07T21:49:05.079Z,22.94
2018-08-07T21:50:40.466Z,22.95
2018-08-07T21:52:15.858Z,22.51
2018-08-07T21:53:51.332Z,23.07
2018-08-07T21:55:28.842Z,22.59
2018-08-07T21:57:04.639Z,22.75
2018-08-07T21:58:40.746Z,22.43
2018-08-07T22:00:32.670Z,22.75
2018-08-07T22:02:09.058Z,23.09
2018-08-07T22:03:48.581Z,23.14
2018-08-07T22:05:24.801Z,22.93
2018-08-07T22:07:02.548Z,22.77
2018-08-07T22:08:38.683Z,23.21
2018-08-07T22:10:21.503Z,22.79
2018-08-07T22:12:00.352Z,23.00
2018-08-07T22:13:38.643Z,22.68
2018-08-07T22:15:21.444Z,22.64
2018-08-07T22:16:57.766Z,23.14
2018-08-07T22:18:35.206Z,23.35
2018-08-07T22:20:11.793Z,22.91
2018-08-07T22:21:50.951Z,23.34
2018-08-07T22:23:26.375Z,22.90
2018-08-07T22:25:02.807Z,22.99
2018-08-07T22:26:41.361Z,22.91
2018-08-07T22:28:19.880Z,23.40
2018-08-07T22:29:57.580Z,23.34
2018-08-07T22:31:34.929Z,22.81
2018-08-07T22:33:10.297Z,23.31
2018-08-07T22:34:45.658Z,22.86
2018-08-07T22:36:21.671Z,23.34
2018-08-07T22:37:57.205Z,23.26
2018-08-07T22:39:33.938Z,23.28
2018-08-07T22:41:10.850Z,23.28
2018-08-07T22:42:46.569Z,23.43
2018-08-07T22:44:24.499Z,23.45
2018-08-07T22:46:01.316Z,23.89
2018-08-07T22:47:39.056Z,23.11
2018-08-07T22:49:16.204Z,23.48
2018-08-07T22:50:51.556Z,23.38
2018-08-07T22:52:32.019Z,23.50
2018-08-07T22:54:11.445Z,23.92
2018-08-07T22:55:47.318Z,23.28
2018-08-07T22:57:23.518Z,23.54
2018-08-07T22:58:59.505Z,23.48
2018-08-07T23:00:35.722Z,23.41
2018-08-07T23:02:11.190Z,23.43
2018-08-07T23:03:47.052Z,23.99
2018-08-07T23:05:24.475Z,23.65
2018-08-07T23:06:59.942Z,23.54
2018-08-07T23:08:35.328Z,23.13
2018-08-07T23:10:17.813Z,24.08
2018-08-07T23:11:53.258Z,23.66
2018-08-07T23:13:29.982Z,23.44
2018-08-07T23:15:11.402Z,23.55
2018-08-07T23:16:46.982Z,24.24
2018-08-07T23:18:22.781Z,23.98
2018-08-07T23:20:01.391Z,24.05
2018-08-07T23:21:37.370Z,24.36
2018-08-07T23:23:13.090Z,24.29
2018-08-07T23:24:49.855Z,24.14
2018-08-07T23:26:27.046Z,24.06
2018-08-07T23:28:03.734Z,23.82
2018-08-07T23:29:40.090Z,24.43
2018-08-07T23:31:18.300Z,23.71
2018-08-07T23:32:53.928Z,23.99
2018-08-07T23:34:29.520Z,24.46
2018-08-07T23:36:07.763Z,24.66
2018-08-07T23:37:44.141Z,23.78
2018-08-07T23:39:25.058Z,23.78
2018-08-07T23:41:01.518Z,23.79
2018-08-07T23:42:38.232Z,24.57
2018-08-07T23:44:13.624Z,24.46
2018-08-07T23:45:49.293Z,24.43
2018-08-07T23:47:25.561Z,24.75
2018-08-07T23:49:01.077Z,24.67
2018-08-07T23:50:36.670Z,24.73
2018-08-07T23:52:13.233Z,24.08
2018-08-07T23:53:49.113Z,24.16
2018-08-07T23:55:24.690Z,24.27
2018-08-07T23:57:01.263Z,24.60
2018-08-07T23:58:38.795Z,24.33
